SALOAV 211200Z 26009G20KT 20KM BKN025CU 16/09 RMK BKN
FCLOAV 211125Z 2112/2121 VRB02KT 9999 FEW030 BKN050 BECMG 2112/2113 27012KT TEMPO 2113/2118 28015G25KT